Time;durP1;ratioP1;P1;durP2;ratioP2;P2;SDS_P1;SDS_P2;PMS_P1;PMS_P2;Temp;Humidity;BMP_temperature;BMP_pressure;BME280_temperature;BME280_humidity;BME280_pressure;Samples;Min_cycle;Max_cycle;Signal;HPM_P1;HPM_P2
2022/08/03 09:55:28;;;;;;;4.10;1.50;;;24.30;99.90;;;;;;6276898;22;20028;-88
2022/08/03 10:16:49;;;;;;;3.58;1.45;;;24.60;99.90;;;;;;6277843;22;20039;-94
2022/08/03 10:19:47;;;;;;;;;;;;;;;;;;;;;
2022/08/03 10:22:37;;;;;;;5.00;1.75;;;24.60;99.90;;;;;;6250841;22;20020;-92
2022/08/03 11:45:13;;;;;;;6.75;1.35;;;27.80;99.90;;;;;;6276229;22;20054;-90
2022/08/03 11:59:04;;;;;;;3.58;1.40;;;28.10;99.90;;;;;;6280585;22;20430;-91
2022/08/03 12:01:42;;;;;;;4.22;1.52;;;28.20;99.90;;;;;;6225142;22;20338;-89
2022/08/03 12:04:10;;;;;;;3.22;1.20;;;28.30;99.90;;;;;;6227760;22;20016;-96
2022/08/03 12:09:44;;;;;;;;;;;;;;;;;;;;;
2022/08/03 12:21:23;;;;;;;6.25;1.63;;;28.80;99.90;;;;;;6309303;22;20027;-95
2022/08/03 12:23:49;;;;;;;5.35;1.50;;;28.80;99.90;;;;;;6307163;22;20023;-87
2022/08/03 12:26:15;;;;;;;4.95;1.80;;;28.80;99.90;;;;;;6285934;22;20017;-88
2022/08/03 12:34:02;;;;;;;6.45;1.60;;;28.90;99.90;;;;;;6307854;22;20031;-91
2022/08/03 12:36:33;;;;;;;3.47;1.55;;;28.90;99.90;;;;;;6256639;22;20310;-94
2022/08/03 12:39:35;;;;;;;8.27;1.67;;;29.00;99.90;;;;;;6257115;22;20015;-90
2022/08/03 12:42:01;;;;;;;6.10;1.35;;;29.10;99.90;;;;;;6260909;22;20022;-90
2022/08/03 12:44:33;;;;;;;5.85;1.63;;;29.10;99.90;;;;;;6258443;22;20345;-91
2022/08/03 13:57:53;;;;;;;6.72;1.50;;;28.70;96.10;;;;;;6267816;22;20020;-91
2022/08/03 14:05:56;;;;;;;4.35;1.70;;;28.60;95.30;;;;;;6307727;22;20019;-92
2022/08/03 14:16:51;;;;;;;4.13;1.55;;;28.50;94.60;;;;;;6308554;22;20027;-89
2022/08/03 14:19:27;;;;;;;3.05;1.60;;;28.40;94.50;;;;;;6281259;22;20020;-92
2022/08/03 14:21:52;;;;;;;4.80;1.77;;;28.50;94.50;;;;;;6255790;22;20047;-91
2022/08/03 14:24:21;;;;;;;4.70;1.48;;;28.50;94.20;;;;;;6281186;22;20018;-88
2022/08/03 14:26:59;;;;;;;4.10;1.77;;;28.50;94.20;;;;;;6256732;22;20019;-90
2022/08/03 14:29:27;;;;;;;4.70;1.60;;;28.60;94.00;;;;;;6255523;22;20026;-89
2022/08/03 14:39:39;;;;;;;6.25;1.70;;;28.40;93.90;;;;;;6339116;22;20015;-91
2022/08/03 14:42:05;;;;;;;6.05;1.95;;;28.40;93.70;;;;;;6286239;22;20030;-91
2022/08/03 14:44:33;;;;;;;4.13;1.52;;;28.40;93.70;;;;;;6286011;22;20014;-91
2022/08/03 14:47:04;;;;;;;4.68;1.90;;;28.40;93.60;;;;;;6286107;22;20021;-91
2022/08/03 14:49:46;;;;;;;4.22;1.67;;;28.40;93.70;;;;;;6286539;22;20340;-90
2022/08/03 14:52:20;;;;;;;5.70;2.10;;;28.30;93.70;;;;;;6286448;22;20006;-91
2022/08/03 14:55:09;;;;;;;4.43;1.92;;;28.30;93.70;;;;;;6285970;22;20022;-91
2022/08/03 14:57:53;;;;;;;3.85;1.83;;;28.30;93.60;;;;;;6267075;22;20011;-92
2022/08/03 17:16:59;;;;;;;2.38;1.10;;;27.20;89.20;;;;;;6303394;22;20437;-92
2022/08/03 19:22:12;;;;;;;4.78;2.58;;;23.10;99.90;;;;;;6320234;22;20019;-93
2022/08/03 19:35:03;;;;;;;5.53;1.80;;;22.80;99.90;;;;;;6340301;22;20026;-92
2022/08/03 20:08:42;;;;;;;7.60;2.90;;;21.80;99.90;;;;;;6311031;22;20027;-95
2022/08/03 20:11:11;;;;;;;6.55;2.40;;;21.80;99.90;;;;;;6258277;22;20024;-94
2022/08/03 20:31:45;;;;;;;5.25;2.28;;;21.30;99.90;;;;;;6340884;22;20019;-92
2022/08/03 20:39:46;;;;;;;4.57;2.08;;;21.30;99.90;;;;;;6347601;22;20023;-95
2022/08/03 20:42:11;;;;;;;5.90;2.67;;;21.30;99.90;;;;;;6289267;22;20065;-93
2022/08/03 20:44:37;;;;;;;5.30;2.40;;;21.30;99.90;;;;;;6288330;22;20008;-92
2022/08/03 20:47:05;;;;;;;6.65;2.80;;;21.30;99.90;;;;;;6288087;22;20015;-91
2022/08/03 20:49:43;;;;;;;5.93;2.10;;;21.30;99.90;;;;;;6287465;22;20086;-94
2022/08/03 20:52:12;;;;;;;7.25;2.70;;;21.40;99.90;;;;;;6288018;22;20023;-93
2022/08/03 20:54:40;;;;;;;7.78;2.70;;;21.40;99.90;;;;;;6287787;22;20462;-95
2022/08/03 20:57:09;;;;;;;5.28;2.30;;;21.40;99.90;;;;;;6287608;22;20459;-92
2022/08/03 21:00:41;;;;;;;4.45;2.22;;;21.40;99.90;;;;;;6288075;22;20032;-96
2022/08/03 21:03:07;;;;;;;5.88;2.53;;;21.30;99.90;;;;;;6137687;23;20506;-91
2022/08/03 21:05:36;;;;;;;7.45;2.35;;;21.30;99.90;;;;;;6140270;23;20021;-96
2022/08/03 21:08:05;;;;;;;6.97;2.10;;;21.30;99.90;;;;;;6216560;22;20403;-95
2022/08/03 21:10:33;;;;;;;6.75;2.92;;;21.20;99.90;;;;;;6290010;22;20023;-93
2022/08/03 21:13:06;;;;;;;6.55;2.40;;;21.20;99.90;;;;;;6286884;22;20460;-95
2022/08/03 21:15:35;;;;;;;7.88;2.80;;;21.10;99.90;;;;;;6287231;22;20021;-93
2022/08/03 21:18:23;;;;;;;;;;;;;;;;;;;;;
2022/08/03 21:21:04;;;;;;;7.85;2.70;;;21.10;99.90;;;;;;6340113;22;20027;-93
2022/08/03 21:23:36;;;;;;;4.78;2.10;;;21.10;99.90;;;;;;6287609;22;20390;-94
2022/08/03 23:28:19;;;;;;;5.72;2.47;;;20.40;99.90;;;;;;6316978;22;20035;-92
2022/08/03 23:30:47;;;;;;;6.70;2.90;;;20.40;99.90;;;;;;6268520;22;20015;-92
2022/08/03 23:33:17;;;;;;;5.53;2.50;;;20.50;99.90;;;;;;6273020;22;20015;-92
